sensor_id;sensor_type;location;lat;lon;timestamp;temperature;humidity
21602;DHT22;10963;50.934;4.668;2022-11-15T00:00:55;11.70;99.90
21602;DHT22;10963;50.934;4.668;2022-11-15T00:03:25;11.70;99.90
21602;DHT22;10963;50.934;4.668;2022-11-15T00:05:51;11.70;99.90
21602;DHT22;10963;50.934;4.668;2022-11-15T00:08:20;11.80;99.90
21602;DHT22;10963;50.934;4.668;2022-11-15T00:10:56;11.90;99.90
21602;DHT22;10963;50.934;4.668;2022-11-15T00:13:25;12.00;99.90
21602;DHT22;10963;50.934;4.668;2022-11-15T00:15:51;12.10;99.90
21602;DHT22;10963;50.934;4.668;2022-11-15T00:18:18;12.00;99.90
21602;DHT22;10963;50.934;4.668;2022-11-15T00:20:46;12.10;99.90
21602;DHT22;10963;50.934;4.668;2022-11-15T00:23:12;12.00;99.90
21602;DHT22;10963;50.934;4.668;2022-11-15T00:25:40;12.00;99.90
21602;DHT22;10963;50.934;4.668;2022-11-15T00:28:07;12.20;99.90
21602;DHT22;10963;50.934;4.668;2022-11-15T00:30:33;12.20;99.90
21602;DHT22;10963;50.934;4.668;2022-11-15T00:33:06;12.20;99.90
21602;DHT22;10963;50.934;4.668;2022-11-15T00:35:33;12.20;99.90
21602;DHT22;10963;50.934;4.668;2022-11-15T00:38:02;12.20;99.90
21602;DHT22;10963;50.934;4.668;2022-11-15T00:40:28;12.20;99.90
21602;DHT22;10963;50.934;4.668;2022-11-15T00:42:59;12.20;99.90
21602;DHT22;10963;50.934;4.668;2022-11-15T00:45:27;12.20;99.90
21602;DHT22;10963;50.934;4.668;2022-11-15T00:47:55;12.20;99.90
21602;DHT22;10963;50.934;4.668;2022-11-15T00:50:23;12.20;99.90
21602;DHT22;10963;50.934;4.668;2022-11-15T00:52:49;12.10;99.90
21602;DHT22;10963;50.934;4.668;2022-11-15T00:55:19;12.20;99.90
21602;DHT22;10963;50.934;4.668;2022-11-15T00:57:47;12.10;99.90
21602;DHT22;10963;50.934;4.668;2022-11-15T01:00:13;12.10;99.90
21602;DHT22;10963;50.934;4.668;2022-11-15T01:02:39;12.20;99.90
21602;DHT22;10963;50.934;4.668;2022-11-15T01:05:07;12.30;99.90
21602;DHT22;10963;50.934;4.668;2022-11-15T01:07:34;12.30;99.90
21602;DHT22;10963;50.934;4.668;2022-11-15T01:10:00;12.30;99.90
21602;DHT22;10963;50.934;4.668;2022-11-15T01:12:28;12.30;99.90
21602;DHT22;10963;50.934;4.668;2022-11-15T01:14:56;12.40;99.90
21602;DHT22;10963;50.934;4.668;2022-11-15T01:17:24;12.40;99.90
21602;DHT22;10963;50.934;4.668;2022-11-15T01:19:52;12.40;99.90
21602;DHT22;10963;50.934;4.668;2022-11-15T01:22:26;12.30;99.90
21602;DHT22;10963;50.934;4.668;2022-11-15T01:24:51;12.20;99.90
21602;DHT22;10963;50.934;4.668;2022-11-15T01:27:17;12.30;99.90
21602;DHT22;10963;50.934;4.668;2022-11-15T01:29:45;12.30;99.90
21602;DHT22;10963;50.934;4.668;2022-11-15T01:32:13;12.30;99.90
21602;DHT22;10963;50.934;4.668;2022-11-15T01:34:41;12.20;99.90
21602;DHT22;10963;50.934;4.668;2022-11-15T01:37:12;12.00;99.90
21602;DHT22;10963;50.934;4.668;2022-11-15T01:39:40;11.90;99.90
21602;DHT22;10963;50.934;4.668;2022-11-15T01:42:08;11.80;99.90
21602;DHT22;10963;50.934;4.668;2022-11-15T01:47:06;12.00;99.90
21602;DHT22;10963;50.934;4.668;2022-11-15T01:49:35;12.00;99.90
21602;DHT22;10963;50.934;4.668;2022-11-15T01:52:05;12.10;99.90
21602;DHT22;10963;50.934;4.668;2022-11-15T01:54:32;12.00;99.90
21602;DHT22;10963;50.934;4.668;2022-11-15T01:57:09;12.00;99.90
21602;DHT22;10963;50.934;4.668;2022-11-15T01:59:39;12.20;99.90
21602;DHT22;10963;50.934;4.668;2022-11-15T02:02:07;12.30;99.90
21602;DHT22;10963;50.934;4.668;2022-11-15T02:04:39;12.50;99.90
21602;DHT22;10963;50.934;4.668;2022-11-15T02:07:11;12.60;99.90
21602;DHT22;10963;50.934;4.668;2022-11-15T02:09:39;12.60;99.90
21602;DHT22;10963;50.934;4.668;2022-11-15T02:12:11;12.50;99.90
21602;DHT22;10963;50.934;4.668;2022-11-15T02:14:40;12.50;99.90
21602;DHT22;10963;50.934;4.668;2022-11-15T02:29:08;12.50;99.90
21602;DHT22;10963;50.934;4.668;2022-11-15T02:42:11;12.60;99.90
21602;DHT22;10963;50.934;4.668;2022-11-15T02:44:58;12.60;99.90
21602;DHT22;10963;50.934;4.668;2022-11-15T02:47:32;12.60;99.90
21602;DHT22;10963;50.934;4.668;2022-11-15T02:50:06;12.60;99.90
21602;DHT22;10963;50.934;4.668;2022-11-15T02:52:37;12.60;99.90
21602;DHT22;10963;50.934;4.668;2022-11-15T02:57:51;12.80;99.90
21602;DHT22;10963;50.934;4.668;2022-11-15T03:00:19;12.80;99.90
21602;DHT22;10963;50.934;4.668;2022-11-15T03:05:35;12.70;99.90
21602;DHT22;10963;50.934;4.668;2022-11-15T03:08:26;12.80;99.90
21602;DHT22;10963;50.934;4.668;2022-11-15T03:11:14;12.70;99.90
21602;DHT22;10963;50.934;4.668;2022-11-15T03:14:03;12.80;99.90
21602;DHT22;10963;50.934;4.668;2022-11-15T03:16:45;12.70;99.90
21602;DHT22;10963;50.934;4.668;2022-11-15T03:19:44;12.80;99.90
21602;DHT22;10963;50.934;4.668;2022-11-15T03:22:16;12.80;99.90
21602;DHT22;10963;50.934;4.668;2022-11-15T03:24:45;12.90;99.90
21602;DHT22;10963;50.934;4.668;2022-11-15T03:27:15;12.70;99.90
21602;DHT22;10963;50.934;4.668;2022-11-15T03:29:55;12.80;99.90
21602;DHT22;10963;50.934;4.668;2022-11-15T03:32:31;12.90;99.90
21602;DHT22;10963;50.934;4.668;2022-11-15T03:35:06;12.80;99.90
21602;DHT22;10963;50.934;4.668;2022-11-15T03:37:43;12.70;99.90
21602;DHT22;10963;50.934;4.668;2022-11-15T03:40:11;12.80;99.90
21602;DHT22;10963;50.934;4.668;2022-11-15T03:46:01;12.80;99.90
21602;DHT22;10963;50.934;4.668;2022-11-15T03:48:34;12.70;99.90
21602;DHT22;10963;50.934;4.668;2022-11-15T03:51:05;12.80;99.90
21602;DHT22;10963;50.934;4.668;2022-11-15T03:53:33;12.70;99.90
21602;DHT22;10963;50.934;4.668;2022-11-15T03:55:59;12.60;99.90
21602;DHT22;10963;50.934;4.668;2022-11-15T03:58:25;12.70;99.90
21602;DHT22;10963;50.934;4.668;2022-11-15T04:00:51;12.80;99.90
21602;DHT22;10963;50.934;4.668;2022-11-15T04:03:21;12.90;99.90
21602;DHT22;10963;50.934;4.668;2022-11-15T04:05:49;12.90;99.90
21602;DHT22;10963;50.934;4.668;2022-11-15T04:08:17;12.70;99.90
21602;DHT22;10963;50.934;4.668;2022-11-15T04:10:45;12.70;99.90
21602;DHT22;10963;50.934;4.668;2022-11-15T04:13:18;12.70;99.90
21602;DHT22;10963;50.934;4.668;2022-11-15T04:15:48;12.50;99.90
21602;DHT22;10963;50.934;4.668;2022-11-15T04:18:16;12.40;99.90
21602;DHT22;10963;50.934;4.668;2022-11-15T04:20:41;12.40;99.90
21602;DHT22;10963;50.934;4.668;2022-11-15T04:23:25;12.40;99.90
21602;DHT22;10963;50.934;4.668;2022-11-15T04:26:17;12.40;99.90
21602;DHT22;10963;50.934;4.668;2022-11-15T04:28:43;12.30;99.90
21602;DHT22;10963;50.934;4.668;2022-11-15T04:31:28;12.30;99.90
21602;DHT22;10963;50.934;4.668;2022-11-15T04:33:54;12.20;99.90
21602;DHT22;10963;50.934;4.668;2022-11-15T04:36:22;12.20;99.90
21602;DHT22;10963;50.934;4.668;2022-11-15T04:39:11;12.10;99.90
21602;DHT22;10963;50.934;4.668;2022-11-15T04:41:37;12.20;99.90
21602;DHT22;10963;50.934;4.668;2022-11-15T04:44:03;12.20;99.90
21602;DHT22;10963;50.934;4.668;2022-11-15T04:46:28;12.20;99.90
21602;DHT22;10963;50.934;4.668;2022-11-15T04:48:56;12.40;99.90
21602;DHT22;10963;50.934;4.668;2022-11-15T04:51:24;12.30;99.90
21602;DHT22;10963;50.934;4.668;2022-11-15T04:53:52;12.30;99.90
21602;DHT22;10963;50.934;4.668;2022-11-15T04:56:20;12.30;99.90
21602;DHT22;10963;50.934;4.668;2022-11-15T04:58:49;12.40;99.90
21602;DHT22;10963;50.934;4.668;2022-11-15T05:01:18;12.40;99.90
21602;DHT22;10963;50.934;4.668;2022-11-15T05:03:44;12.50;99.90
21602;DHT22;10963;50.934;4.668;2022-11-15T05:06:29;12.50;99.90
21602;DHT22;10963;50.934;4.668;2022-11-15T05:08:57;12.30;99.90
21602;DHT22;10963;50.934;4.668;2022-11-15T05:11:23;12.10;99.90
21602;DHT22;10963;50.934;4.668;2022-11-15T05:13:49;11.90;99.90
21602;DHT22;10963;50.934;4.668;2022-11-15T05:16:15;11.80;99.90
21602;DHT22;10963;50.934;4.668;2022-11-15T05:18:44;11.70;99.90
21602;DHT22;10963;50.934;4.668;2022-11-15T05:21:14;11.70;99.90
21602;DHT22;10963;50.934;4.668;2022-11-15T05:23:43;11.90;99.90
21602;DHT22;10963;50.934;4.668;2022-11-15T05:26:09;12.00;99.90
21602;DHT22;10963;50.934;4.668;2022-11-15T05:28:38;11.90;99.90
21602;DHT22;10963;50.934;4.668;2022-11-15T05:31:11;12.00;99.90
21602;DHT22;10963;50.934;4.668;2022-11-15T05:33:41;11.90;99.90
21602;DHT22;10963;50.934;4.668;2022-11-15T05:36:44;11.80;99.90
21602;DHT22;10963;50.934;4.668;2022-11-15T05:39:06;11.80;99.90
21602;DHT22;10963;50.934;4.668;2022-11-15T05:41:42;11.90;99.90
21602;DHT22;10963;50.934;4.668;2022-11-15T05:44:13;11.90;99.90
21602;DHT22;10963;50.934;4.668;2022-11-15T05:46:40;12.00;99.90
21602;DHT22;10963;50.934;4.668;2022-11-15T05:49:15;12.00;99.90
21602;DHT22;10963;50.934;4.668;2022-11-15T05:51:47;12.00;99.90
21602;DHT22;10963;50.934;4.668;2022-11-15T05:54:14;12.00;99.90
21602;DHT22;10963;50.934;4.668;2022-11-15T05:56:42;11.90;99.90
21602;DHT22;10963;50.934;4.668;2022-11-15T05:59:10;11.90;99.90
21602;DHT22;10963;50.934;4.668;2022-11-15T06:01:36;11.90;99.90
21602;DHT22;10963;50.934;4.668;2022-11-15T06:04:03;11.70;99.90
21602;DHT22;10963;50.934;4.668;2022-11-15T06:06:33;11.60;99.90
21602;DHT22;10963;50.934;4.668;2022-11-15T06:09:01;11.60;99.90
21602;DHT22;10963;50.934;4.668;2022-11-15T06:11:27;11.70;99.90
21602;DHT22;10963;50.934;4.668;2022-11-15T06:13:53;11.60;99.90
21602;DHT22;10963;50.934;4.668;2022-11-15T06:16:18;11.70;99.90
21602;DHT22;10963;50.934;4.668;2022-11-15T06:18:44;11.60;99.90
21602;DHT22;10963;50.934;4.668;2022-11-15T06:21:10;11.70;99.90
21602;DHT22;10963;50.934;4.668;2022-11-15T06:23:35;11.70;99.90
21602;DHT22;10963;50.934;4.668;2022-11-15T06:26:04;11.70;99.90
21602;DHT22;10963;50.934;4.668;2022-11-15T06:28:33;11.60;99.90
21602;DHT22;10963;50.934;4.668;2022-11-15T06:31:09;11.60;99.90
21602;DHT22;10963;50.934;4.668;2022-11-15T06:33:36;11.50;99.90
21602;DHT22;10963;50.934;4.668;2022-11-15T06:36:10;11.50;99.90
21602;DHT22;10963;50.934;4.668;2022-11-15T06:38:39;11.50;99.90
21602;DHT22;10963;50.934;4.668;2022-11-15T06:41:09;11.40;99.90
21602;DHT22;10963;50.934;4.668;2022-11-15T06:43:36;11.30;99.90
21602;DHT22;10963;50.934;4.668;2022-11-15T06:46:03;11.20;99.90
21602;DHT22;10963;50.934;4.668;2022-11-15T06:48:32;11.20;99.90
21602;DHT22;10963;50.934;4.668;2022-11-15T06:51:02;11.10;99.90
21602;DHT22;10963;50.934;4.668;2022-11-15T06:53:34;11.20;99.90
21602;DHT22;10963;50.934;4.668;2022-11-15T06:56:03;11.10;99.90
21602;DHT22;10963;50.934;4.668;2022-11-15T06:58:30;11.10;99.90
21602;DHT22;10963;50.934;4.668;2022-11-15T07:01:00;11.20;99.90
21602;DHT22;10963;50.934;4.668;2022-11-15T07:03:29;11.00;99.90
21602;DHT22;10963;50.934;4.668;2022-11-15T07:05:57;10.90;99.90
21602;DHT22;10963;50.934;4.668;2022-11-15T07:08:27;10.90;99.90
21602;DHT22;10963;50.934;4.668;2022-11-15T07:10:54;10.80;99.90
21602;DHT22;10963;50.934;4.668;2022-11-15T07:13:22;10.70;99.90
21602;DHT22;10963;50.934;4.668;2022-11-15T07:15:51;10.70;99.90
21602;DHT22;10963;50.934;4.668;2022-11-15T07:18:20;10.70;99.90
21602;DHT22;10963;50.934;4.668;2022-11-15T07:20:46;10.60;99.90
21602;DHT22;10963;50.934;4.668;2022-11-15T07:23:14;10.60;99.90
21602;DHT22;10963;50.934;4.668;2022-11-15T07:25:39;10.60;99.90
21602;DHT22;10963;50.934;4.668;2022-11-15T07:28:08;10.60;99.90
21602;DHT22;10963;50.934;4.668;2022-11-15T07:30:33;10.60;99.90
21602;DHT22;10963;50.934;4.668;2022-11-15T07:33:00;10.60;99.90
21602;DHT22;10963;50.934;4.668;2022-11-15T07:35:28;10.60;99.90
21602;DHT22;10963;50.934;4.668;2022-11-15T07:38:00;10.60;99.90
21602;DHT22;10963;50.934;4.668;2022-11-15T07:40:30;10.40;99.90
21602;DHT22;10963;50.934;4.668;2022-11-15T07:43:04;10.50;99.90
21602;DHT22;10963;50.934;4.668;2022-11-15T07:45:33;10.40;99.90
21602;DHT22;10963;50.934;4.668;2022-11-15T07:48:01;10.50;99.90
21602;DHT22;10963;50.934;4.668;2022-11-15T07:50:29;10.50;99.90
21602;DHT22;10963;50.934;4.668;2022-11-15T07:52:59;10.50;99.90
21602;DHT22;10963;50.934;4.668;2022-11-15T07:55:26;10.50;99.90
21602;DHT22;10963;50.934;4.668;2022-11-15T07:58:03;10.60;99.90
21602;DHT22;10963;50.934;4.668;2022-11-15T08:00:32;10.40;99.90
21602;DHT22;10963;50.934;4.668;2022-11-15T08:03:12;10.50;99.90
21602;DHT22;10963;50.934;4.668;2022-11-15T08:05:40;10.60;99.90
21602;DHT22;10963;50.934;4.668;2022-11-15T08:08:12;10.60;99.90
21602;DHT22;10963;50.934;4.668;2022-11-15T08:10:40;10.60;99.90
21602;DHT22;10963;50.934;4.668;2022-11-15T08:13:08;10.60;99.90
21602;DHT22;10963;50.934;4.668;2022-11-15T08:15:40;10.60;99.90
21602;DHT22;10963;50.934;4.668;2022-11-15T08:18:14;10.60;99.90
21602;DHT22;10963;50.934;4.668;2022-11-15T08:20:43;10.70;99.90
21602;DHT22;10963;50.934;4.668;2022-11-15T08:23:11;10.80;99.90
21602;DHT22;10963;50.934;4.668;2022-11-15T08:25:38;10.70;99.90
21602;DHT22;10963;50.934;4.668;2022-11-15T08:28:07;10.80;99.90
21602;DHT22;10963;50.934;4.668;2022-11-15T08:30:38;10.80;99.90
21602;DHT22;10963;50.934;4.668;2022-11-15T08:33:04;10.80;99.90
21602;DHT22;10963;50.934;4.668;2022-11-15T08:35:32;10.80;99.90
21602;DHT22;10963;50.934;4.668;2022-11-15T08:37:58;10.80;99.90
21602;DHT22;10963;50.934;4.668;2022-11-15T08:40:23;10.90;99.90
21602;DHT22;10963;50.934;4.668;2022-11-15T08:42:49;11.00;99.90
21602;DHT22;10963;50.934;4.668;2022-11-15T08:45:19;11.10;99.90
21602;DHT22;10963;50.934;4.668;2022-11-15T08:47:47;11.20;99.90
21602;DHT22;10963;50.934;4.668;2022-11-15T08:50:14;11.20;99.90
21602;DHT22;10963;50.934;4.668;2022-11-15T08:52:42;11.20;99.90
21602;DHT22;10963;50.934;4.668;2022-11-15T08:55:10;11.20;99.90
21602;DHT22;10963;50.934;4.668;2022-11-15T08:57:36;11.20;99.90
21602;DHT22;10963;50.934;4.668;2022-11-15T09:00:03;11.10;99.90
21602;DHT22;10963;50.934;4.668;2022-11-15T09:02:29;11.20;99.90
21602;DHT22;10963;50.934;4.668;2022-11-15T09:04:55;11.20;99.90
21602;DHT22;10963;50.934;4.668;2022-11-15T09:07:21;11.10;99.90
21602;DHT22;10963;50.934;4.668;2022-11-15T09:09:49;11.20;99.90
21602;DHT22;10963;50.934;4.668;2022-11-15T09:12:17;11.30;99.90
21602;DHT22;10963;50.934;4.668;2022-11-15T09:14:45;11.30;99.90
21602;DHT22;10963;50.934;4.668;2022-11-15T09:17:13;11.30;99.90
21602;DHT22;10963;50.934;4.668;2022-11-15T09:19:38;11.30;99.90
21602;DHT22;10963;50.934;4.668;2022-11-15T09:22:08;11.40;99.90
21602;DHT22;10963;50.934;4.668;2022-11-15T09:24:36;11.60;99.90
21602;DHT22;10963;50.934;4.668;2022-11-15T09:27:04;11.60;99.90
21602;DHT22;10963;50.934;4.668;2022-11-15T09:29:29;11.80;99.90
21602;DHT22;10963;50.934;4.668;2022-11-15T09:31:55;11.90;99.90
21602;DHT22;10963;50.934;4.668;2022-11-15T09:34:23;11.90;99.90
21602;DHT22;10963;50.934;4.668;2022-11-15T09:36:51;11.80;99.90
21602;DHT22;10963;50.934;4.668;2022-11-15T09:39:19;11.90;99.90
21602;DHT22;10963;50.934;4.668;2022-11-15T09:50:16;11.90;99.90
21602;DHT22;10963;50.934;4.668;2022-11-15T09:52:44;12.20;99.90
21602;DHT22;10963;50.934;4.668;2022-11-15T09:55:12;12.20;99.90
21602;DHT22;10963;50.934;4.668;2022-11-15T10:00:47;12.50;99.90
21602;DHT22;10963;50.934;4.668;2022-11-15T10:03:15;12.70;99.90
21602;DHT22;10963;50.934;4.668;2022-11-15T10:05:47;12.80;99.90
21602;DHT22;10963;50.934;4.668;2022-11-15T10:10:52;12.80;99.90
21602;DHT22;10963;50.934;4.668;2022-11-15T10:13:42;12.80;99.90
21602;DHT22;10963;50.934;4.668;2022-11-15T10:24:39;13.00;99.90
21602;DHT22;10963;50.934;4.668;2022-11-15T10:27:16;13.00;99.90
21602;DHT22;10963;50.934;4.668;2022-11-15T10:29:48;12.90;99.90
21602;DHT22;10963;50.934;4.668;2022-11-15T10:32:17;12.80;99.90
21602;DHT22;10963;50.934;4.668;2022-11-15T10:34:43;12.70;99.90
21602;DHT22;10963;50.934;4.668;2022-11-15T10:37:09;12.70;99.90
21602;DHT22;10963;50.934;4.668;2022-11-15T10:39:37;12.70;99.90
21602;DHT22;10963;50.934;4.668;2022-11-15T10:42:27;12.80;99.90
21602;DHT22;10963;50.934;4.668;2022-11-15T10:44:53;12.70;99.90
21602;DHT22;10963;50.934;4.668;2022-11-15T10:47:30;12.80;99.90
21602;DHT22;10963;50.934;4.668;2022-11-15T10:50:47;12.90;99.90
21602;DHT22;10963;50.934;4.668;2022-11-15T10:52:49;13.00;99.90
21602;DHT22;10963;50.934;4.668;2022-11-15T10:57:58;12.90;99.90
21602;DHT22;10963;50.934;4.668;2022-11-15T11:00:32;13.10;99.90
21602;DHT22;10963;50.934;4.668;2022-11-15T11:02:59;13.10;99.90
21602;DHT22;10963;50.934;4.668;2022-11-15T11:05:35;13.20;99.90
21602;DHT22;10963;50.934;4.668;2022-11-15T11:08:21;13.10;99.90
21602;DHT22;10963;50.934;4.668;2022-11-15T11:11:00;13.00;99.90
21602;DHT22;10963;50.934;4.668;2022-11-15T11:13:30;13.00;99.90
21602;DHT22;10963;50.934;4.668;2022-11-15T11:19:12;13.10;99.90
21602;DHT22;10963;50.934;4.668;2022-11-15T11:22:09;13.20;99.90
21602;DHT22;10963;50.934;4.668;2022-11-15T11:35:46;13.40;99.90
21602;DHT22;10963;50.934;4.668;2022-11-15T11:40:30;13.40;99.90
21602;DHT22;10963;50.934;4.668;2022-11-15T11:46:13;13.40;99.90
21602;DHT22;10963;50.934;4.668;2022-11-15T11:48:48;13.50;99.90
21602;DHT22;10963;50.934;4.668;2022-11-15T11:54:05;13.60;99.90
21602;DHT22;10963;50.934;4.668;2022-11-15T11:56:40;13.40;99.90
21602;DHT22;10963;50.934;4.668;2022-11-15T11:59:33;13.50;99.90
21602;DHT22;10963;50.934;4.668;2022-11-15T12:02:14;13.60;99.90
21602;DHT22;10963;50.934;4.668;2022-11-15T12:04:47;13.70;99.90
21602;DHT22;10963;50.934;4.668;2022-11-15T12:07:25;13.60;99.90
21602;DHT22;10963;50.934;4.668;2022-11-15T12:10:28;13.60;99.90
21602;DHT22;10963;50.934;4.668;2022-11-15T12:13:26;13.70;99.90
21602;DHT22;10963;50.934;4.668;2022-11-15T12:16:26;13.70;99.90
21602;DHT22;10963;50.934;4.668;2022-11-15T12:18:55;13.80;99.90
21602;DHT22;10963;50.934;4.668;2022-11-15T12:21:48;13.80;99.90
21602;DHT22;10963;50.934;4.668;2022-11-15T12:27:20;13.90;99.90
21602;DHT22;10963;50.934;4.668;2022-11-15T12:29:54;13.90;99.90
21602;DHT22;10963;50.934;4.668;2022-11-15T12:32:28;13.90;99.90
21602;DHT22;10963;50.934;4.668;2022-11-15T12:34:58;13.90;99.90
21602;DHT22;10963;50.934;4.668;2022-11-15T12:40:27;13.80;99.90
21602;DHT22;10963;50.934;4.668;2022-11-15T12:45:44;14.00;99.90
21602;DHT22;10963;50.934;4.668;2022-11-15T12:56:17;13.90;99.90
21602;DHT22;10963;50.934;4.668;2022-11-15T13:14:54;14.00;99.90
21602;DHT22;10963;50.934;4.668;2022-11-15T13:19:52;14.30;99.90
21602;DHT22;10963;50.934;4.668;2022-11-15T13:22:19;14.50;99.90
21602;DHT22;10963;50.934;4.668;2022-11-15T13:25:11;14.40;99.90
21602;DHT22;10963;50.934;4.668;2022-11-15T13:27:42;14.50;99.90
21602;DHT22;10963;50.934;4.668;2022-11-15T13:30:24;14.50;99.90
21602;DHT22;10963;50.934;4.668;2022-11-15T13:32:50;14.50;99.90
21602;DHT22;10963;50.934;4.668;2022-11-15T13:35:24;14.50;99.90
21602;DHT22;10963;50.934;4.668;2022-11-15T13:37:51;14.60;99.90
21602;DHT22;10963;50.934;4.668;2022-11-15T13:40:27;14.60;99.90
21602;DHT22;10963;50.934;4.668;2022-11-15T13:42:58;14.60;99.90
21602;DHT22;10963;50.934;4.668;2022-11-15T13:45:27;14.40;99.90
21602;DHT22;10963;50.934;4.668;2022-11-15T13:47:56;14.40;99.90
21602;DHT22;10963;50.934;4.668;2022-11-15T13:50:27;14.30;99.90
21602;DHT22;10963;50.934;4.668;2022-11-15T13:52:57;14.30;99.90
21602;DHT22;10963;50.934;4.668;2022-11-15T13:55:27;14.30;99.90
21602;DHT22;10963;50.934;4.668;2022-11-15T13:58:02;14.30;99.90
21602;DHT22;10963;50.934;4.668;2022-11-15T14:00:42;14.30;99.90
21602;DHT22;10963;50.934;4.668;2022-11-15T14:03:22;14.40;99.90
21602;DHT22;10963;50.934;4.668;2022-11-15T14:06:09;14.30;99.90
21602;DHT22;10963;50.934;4.668;2022-11-15T14:08:41;14.30;99.90
21602;DHT22;10963;50.934;4.668;2022-11-15T14:13:38;14.50;99.90
21602;DHT22;10963;50.934;4.668;2022-11-15T14:16:20;14.60;99.90
21602;DHT22;10963;50.934;4.668;2022-11-15T14:18:52;14.60;99.90
21602;DHT22;10963;50.934;4.668;2022-11-15T14:21:19;14.60;99.90
21602;DHT22;10963;50.934;4.668;2022-11-15T14:23:48;14.60;99.90
21602;DHT22;10963;50.934;4.668;2022-11-15T14:26:32;14.50;99.90
21602;DHT22;10963;50.934;4.668;2022-11-15T14:29:21;14.50;99.90
21602;DHT22;10963;50.934;4.668;2022-11-15T14:31:47;14.30;99.90
21602;DHT22;10963;50.934;4.668;2022-11-15T14:34:13;14.20;99.90
21602;DHT22;10963;50.934;4.668;2022-11-15T14:36:40;14.20;99.90
21602;DHT22;10963;50.934;4.668;2022-11-15T14:39:06;14.10;99.90
21602;DHT22;10963;50.934;4.668;2022-11-15T14:41:35;14.00;99.90
21602;DHT22;10963;50.934;4.668;2022-11-15T14:44:04;13.80;99.90
21602;DHT22;10963;50.934;4.668;2022-11-15T14:46:30;13.70;99.90
21602;DHT22;10963;50.934;4.668;2022-11-15T14:48:56;13.50;99.90
21602;DHT22;10963;50.934;4.668;2022-11-15T14:51:22;13.40;99.90
21602;DHT22;10963;50.934;4.668;2022-11-15T14:53:53;13.30;99.90
21602;DHT22;10963;50.934;4.668;2022-11-15T14:56:23;13.40;99.90
21602;DHT22;10963;50.934;4.668;2022-11-15T14:58:48;13.40;99.90
21602;DHT22;10963;50.934;4.668;2022-11-15T15:01:23;13.30;99.90
21602;DHT22;10963;50.934;4.668;2022-11-15T15:03:51;13.30;99.90
21602;DHT22;10963;50.934;4.668;2022-11-15T15:06:18;13.40;99.90
21602;DHT22;10963;50.934;4.668;2022-11-15T15:08:46;13.30;99.90
21602;DHT22;10963;50.934;4.668;2022-11-15T15:11:25;13.20;99.90
21602;DHT22;10963;50.934;4.668;2022-11-15T15:13:52;13.30;99.90
21602;DHT22;10963;50.934;4.668;2022-11-15T15:16:23;13.20;99.90
21602;DHT22;10963;50.934;4.668;2022-11-15T15:18:49;13.20;99.90
21602;DHT22;10963;50.934;4.668;2022-11-15T15:21:28;13.10;99.90
21602;DHT22;10963;50.934;4.668;2022-11-15T15:23:54;13.20;99.90
21602;DHT22;10963;50.934;4.668;2022-11-15T15:26:23;13.30;99.90
21602;DHT22;10963;50.934;4.668;2022-11-15T15:28:49;13.30;99.90
21602;DHT22;10963;50.934;4.668;2022-11-15T15:31:18;13.20;99.90
21602;DHT22;10963;50.934;4.668;2022-11-15T15:33:44;13.10;99.90
21602;DHT22;10963;50.934;4.668;2022-11-15T15:36:16;13.20;99.90
21602;DHT22;10963;50.934;4.668;2022-11-15T15:38:42;13.10;99.90
21602;DHT22;10963;50.934;4.668;2022-11-15T15:41:13;13.10;99.90
21602;DHT22;10963;50.934;4.668;2022-11-15T15:43:41;13.00;99.90
21602;DHT22;10963;50.934;4.668;2022-11-15T15:46:17;13.00;99.90
21602;DHT22;10963;50.934;4.668;2022-11-15T15:48:49;12.90;99.90
21602;DHT22;10963;50.934;4.668;2022-11-15T15:51:15;12.90;99.90
21602;DHT22;10963;50.934;4.668;2022-11-15T15:53:43;12.90;99.90
21602;DHT22;10963;50.934;4.668;2022-11-15T15:56:11;12.80;99.90
21602;DHT22;10963;50.934;4.668;2022-11-15T15:58:39;12.80;99.90
21602;DHT22;10963;50.934;4.668;2022-11-15T16:01:08;12.80;99.90
21602;DHT22;10963;50.934;4.668;2022-11-15T16:03:36;12.80;99.90
21602;DHT22;10963;50.934;4.668;2022-11-15T16:06:02;12.80;99.90
21602;DHT22;10963;50.934;4.668;2022-11-15T16:08:29;12.80;99.90
21602;DHT22;10963;50.934;4.668;2022-11-15T16:10:55;12.80;99.90
21602;DHT22;10963;50.934;4.668;2022-11-15T16:13:23;12.80;99.90
21602;DHT22;10963;50.934;4.668;2022-11-15T16:15:54;12.70;99.90
21602;DHT22;10963;50.934;4.668;2022-11-15T16:18:23;12.70;99.90
21602;DHT22;10963;50.934;4.668;2022-11-15T16:20:49;12.70;99.90
21602;DHT22;10963;50.934;4.668;2022-11-15T16:23:23;12.70;99.90
21602;DHT22;10963;50.934;4.668;2022-11-15T16:25:55;12.70;99.90
21602;DHT22;10963;50.934;4.668;2022-11-15T16:28:27;12.70;99.90
21602;DHT22;10963;50.934;4.668;2022-11-15T16:31:14;12.70;99.90
21602;DHT22;10963;50.934;4.668;2022-11-15T16:33:43;12.70;99.90
21602;DHT22;10963;50.934;4.668;2022-11-15T16:36:19;12.70;99.90
21602;DHT22;10963;50.934;4.668;2022-11-15T16:38:51;12.60;99.90
21602;DHT22;10963;50.934;4.668;2022-11-15T16:41:18;12.70;99.90
21602;DHT22;10963;50.934;4.668;2022-11-15T16:43:53;12.70;99.90
21602;DHT22;10963;50.934;4.668;2022-11-15T16:46:24;12.80;99.90
21602;DHT22;10963;50.934;4.668;2022-11-15T16:48:51;12.70;99.90
21602;DHT22;10963;50.934;4.668;2022-11-15T16:51:17;12.80;99.90
21602;DHT22;10963;50.934;4.668;2022-11-15T16:53:43;12.70;99.90
21602;DHT22;10963;50.934;4.668;2022-11-15T16:56:28;12.70;99.90
21602;DHT22;10963;50.934;4.668;2022-11-15T16:58:56;12.90;99.90
21602;DHT22;10963;50.934;4.668;2022-11-15T17:01:30;12.90;99.90
21602;DHT22;10963;50.934;4.668;2022-11-15T17:03:57;12.80;99.90
21602;DHT22;10963;50.934;4.668;2022-11-15T17:06:37;13.00;99.90
21602;DHT22;10963;50.934;4.668;2022-11-15T17:09:08;13.00;99.90
21602;DHT22;10963;50.934;4.668;2022-11-15T17:11:40;13.00;99.90
21602;DHT22;10963;50.934;4.668;2022-11-15T17:14:09;13.00;99.90
21602;DHT22;10963;50.934;4.668;2022-11-15T17:16:34;13.00;99.90
21602;DHT22;10963;50.934;4.668;2022-11-15T17:19:03;13.10;99.90
21602;DHT22;10963;50.934;4.668;2022-11-15T17:21:31;13.10;99.90
21602;DHT22;10963;50.934;4.668;2022-11-15T17:24:02;13.00;99.90
21602;DHT22;10963;50.934;4.668;2022-11-15T17:26:30;12.90;99.90
21602;DHT22;10963;50.934;4.668;2022-11-15T17:28:58;13.00;99.90
21602;DHT22;10963;50.934;4.668;2022-11-15T17:31:29;13.00;99.90
21602;DHT22;10963;50.934;4.668;2022-11-15T17:34:00;13.00;99.90
21602;DHT22;10963;50.934;4.668;2022-11-15T17:36:29;12.90;99.90
21602;DHT22;10963;50.934;4.668;2022-11-15T17:38:55;13.00;99.90
21602;DHT22;10963;50.934;4.668;2022-11-15T17:41:21;13.00;99.90
21602;DHT22;10963;50.934;4.668;2022-11-15T17:43:47;12.90;99.90
21602;DHT22;10963;50.934;4.668;2022-11-15T17:46:17;12.90;99.90
21602;DHT22;10963;50.934;4.668;2022-11-15T17:48:47;12.90;99.90
21602;DHT22;10963;50.934;4.668;2022-11-15T17:51:16;12.90;99.90